Time;durP1;ratioP1;P1;durP2;ratioP2;P2;SDS_P1;SDS_P2;PMS_P1;PMS_P2;Temp;Humidity;BMP_temperature;BMP_pressure;BME280_temperature;BME280_humidity;BME280_pressure;Samples;Min_cycle;Max_cycle;Signal;HPM_P1;HPM_P2
2022/02/15 00:00:22;;;;;;;41.08;24.05;;;;;;;3.04;66.14;100831.00;5048815;28;20547;-21
2022/02/15 00:02:48;;;;;;;44.63;25.20;;;;;;;2.96;66.00;100830.94;5049155;28;20044;-22
2022/02/15 00:05:14;;;;;;;40.55;23.00;;;;;;;2.67;66.49;100817.97;5049118;28;20024;-21
2022/02/15 00:07:39;;;;;;;44.03;24.60;;;;;;;2.81;65.92;100815.66;5049275;28;20040;-21
2022/02/15 00:10:08;;;;;;;108.38;48.60;;;;;;;2.55;66.47;100810.28;5049048;28;20404;-21
2022/02/15 00:12:33;;;;;;;129.18;51.75;;;;;;;2.00;67.86;100800.63;5048637;28;20472;-22
2022/02/15 00:14:59;;;;;;;59.78;28.08;;;;;;;2.09;68.01;100824.41;5048935;28;20040;-21
2022/02/15 00:17:24;;;;;;;43.90;24.38;;;;;;;1.50;70.61;100829.81;5048880;28;20029;-22
2022/02/15 00:19:50;;;;;;;50.30;26.05;;;;;;;1.73;70.96;100832.13;5048931;28;20048;-21
2022/02/15 00:22:15;;;;;;;48.83;27.42;;;;;;;1.85;69.99;100833.59;5048634;28;20032;-21
2022/02/15 00:24:41;;;;;;;49.25;26.23;;;;;;;2.42;69.36;100826.44;5048651;28;20149;-21
2022/02/15 00:27:06;;;;;;;53.15;27.27;;;;;;;2.68;68.67;100819.66;5048463;28;20450;-21
2022/02/15 00:29:32;;;;;;;43.90;24.35;;;;;;;2.43;66.97;100808.81;5048656;28;20033;-21
2022/02/15 00:31:57;;;;;;;46.45;23.73;;;;;;;2.73;65.35;100822.66;5048561;28;20036;-21
2022/02/15 00:34:23;;;;;;;46.03;23.80;;;;;;;2.64;64.74;100803.31;5048627;28;20036;-22
2022/02/15 00:36:48;;;;;;;69.93;40.75;;;;;;;2.28;65.40;100803.25;5048287;28;20472;-22
2022/02/15 00:39:14;;;;;;;74.00;36.80;;;;;;;2.30;64.54;100817.06;5048631;28;20037;-21
2022/02/15 00:41:39;;;;;;;45.60;24.30;;;;;;;1.88;66.33;100807.03;5048489;28;20021;-21
2022/02/15 00:44:05;;;;;;;44.50;23.75;;;;;;;2.03;66.17;100809.19;5048195;28;20451;-21
2022/02/15 00:46:30;;;;;;;44.88;22.75;;;;;;;2.48;64.98;100829.47;5048308;28;20059;-21
2022/02/15 00:48:55;;;;;;;96.85;53.95;;;;;;;2.21;66.17;100823.22;5048122;28;20044;-22
2022/02/15 00:51:21;;;;;;;51.67;29.95;;;;;;;2.15;66.18;100789.59;5048474;28;20503;-21
2022/02/15 00:53:46;;;;;;;43.53;24.20;;;;;;;2.13;67.42;100823.13;5030328;28;20055;-21
2022/02/15 00:56:12;;;;;;;64.88;34.50;;;;;;;2.30;66.46;100811.00;5048054;28;20040;-21
2022/02/15 00:58:37;;;;;;;67.43;35.70;;;;;;;2.49;65.78;100807.41;5047891;28;20044;-22
2022/02/15 01:01:03;;;;;;;112.65;49.05;;;;;;;2.34;65.68;100797.38;5048432;28;20421;-21
2022/02/15 01:03:28;;;;;;;115.68;48.38;;;;;;;1.80;67.31;100794.59;5047975;28;20040;-21
2022/02/15 01:05:54;;;;;;;56.92;28.38;;;;;;;2.26;66.57;100772.78;5048008;28;20033;-21
2022/02/15 01:08:19;;;;;;;48.50;25.23;;;;;;;2.34;66.37;100797.38;5048091;28;20047;-21
2022/02/15 01:10:46;;;;;;;91.25;42.65;;;;;;;2.27;67.17;100787.59;5047627;28;20424;-21
2022/02/15 01:13:12;;;;;;;140.20;60.28;;;;;;;2.29;66.96;100778.59;5047776;28;20553;-21
2022/02/15 01:15:38;;;;;;;120.85;55.35;;;;;;;2.47;66.43;100785.69;5048016;28;20590;-21
2022/02/15 01:18:03;;;;;;;64.78;34.00;;;;;;;2.54;65.62;100766.50;5030120;28;20033;-21
2022/02/15 01:20:29;;;;;;;83.13;40.40;;;;;;;1.63;67.97;100773.47;5047815;28;20416;-21
2022/02/15 01:22:55;;;;;;;109.97;42.53;;;;;;;1.20;70.05;100771.19;5047860;28;20420;-21
2022/02/15 01:25:22;;;;;;;80.40;37.58;;;;;;;1.72;69.23;100776.06;5047798;28;20123;-21
2022/02/15 01:27:48;;;;;;;71.30;37.25;;;;;;;1.47;68.76;100761.78;5047563;28;20091;-21
2022/02/15 01:30:13;;;;;;;63.88;35.03;;;;;;;1.28;69.45;100790.72;5048474;28;20480;-22
2022/02/15 01:32:39;;;;;;;62.15;31.50;;;;;;;0.99;70.05;100788.94;5029476;28;20017;-21
2022/02/15 01:35:04;;;;;;;72.20;34.45;;;;;;;1.28;69.09;100788.06;5048104;28;20025;-21
2022/02/15 01:37:30;;;;;;;53.97;28.85;;;;;;;1.36;67.35;100785.56;5029772;28;20025;-21
2022/02/15 01:39:55;;;;;;;50.65;26.48;;;;;;;0.65;68.04;100772.75;5029680;28;20507;-21
2022/02/15 01:42:22;;;;;;;42.33;23.77;;;;;;;0.19;68.33;100754.84;5029588;28;20036;-21
2022/02/15 01:44:47;;;;;;;47.88;24.65;;;;;;;0.72;66.67;100782.56;5049363;28;20039;-22
2022/02/15 01:47:26;;;;;;;44.75;23.50;;;;;;;0.06;68.10;100783.13;5052047;28;20033;-22
2022/02/15 01:49:52;;;;;;;42.33;22.02;;;;;;;0.32;67.92;100786.09;5017270;28;20036;-21
2022/02/15 01:52:20;;;;;;;40.05;22.23;;;;;;;0.06;69.91;100783.13;5017441;28;20037;-21
2022/02/15 01:54:54;;;;;;;37.13;23.25;;;;;;;0.01;71.00;100776.63;5051176;28;20048;-21
2022/02/15 01:57:19;;;;;;;46.80;24.55;;;;;;;0.10;70.57;100781.06;5051552;28;20443;-23
2022/02/15 01:59:45;;;;;;;41.50;24.85;;;;;;;0.39;69.31;100771.47;5016973;28;20053;-21
2022/02/15 02:02:11;;;;;;;41.00;23.48;;;;;;;0.57;68.79;100782.16;5033594;28;20432;-21
2022/02/15 02:07:21;;;;;;;42.10;25.13;;;;;;;0.88;67.30;100792.53;5051321;28;20044;-21
2022/02/15 02:09:46;;;;;;;39.35;25.00;;;;;;;0.63;67.75;100783.38;5051399;28;20809;-21
2022/02/15 02:12:12;;;;;;;50.08;25.65;;;;;;;0.76;67.90;100789.22;5051452;28;20029;-22
2022/02/15 02:14:37;;;;;;;47.08;24.92;;;;;;;0.35;68.99;100780.59;5051063;28;20043;-22
2022/02/15 02:17:03;;;;;;;45.35;24.10;;;;;;;0.77;68.26;100775.09;5051262;28;20025;-21
2022/02/15 02:19:29;;;;;;;48.88;24.63;;;;;;;0.96;67.04;100791.81;5051058;28;20112;-21
2022/02/15 02:21:54;;;;;;;44.63;23.55;;;;;;;1.17;65.54;100778.56;5051036;28;20041;-21
2022/02/15 02:24:19;;;;;;;43.20;23.92;;;;;;;0.94;67.03;100791.13;5051410;28;20831;-21
2022/02/15 02:26:45;;;;;;;44.60;24.60;;;;;;;1.14;65.62;100771.75;5050789;28;20051;-21
2022/02/15 02:29:10;;;;;;;79.60;33.70;;;;;;;0.40;68.83;100793.28;5016780;28;20029;-21
2022/02/15 02:31:36;;;;;;;92.80;32.55;;;;;;;0.67;68.04;100795.25;5050871;28;20602;-21
2022/02/15 02:34:01;;;;;;;47.33;25.23;;;;;;;0.34;67.67;100778.91;5033139;28;20697;-20
2022/02/15 02:36:27;;;;;;;44.72;24.48;;;;;;;0.75;67.13;100798.03;5050186;28;20020;-21
2022/02/15 02:38:52;;;;;;;48.20;24.17;;;;;;;1.09;65.82;100795.00;5051155;28;20033;-21
2022/02/15 02:41:18;;;;;;;44.42;24.40;;;;;;;1.03;66.93;100795.56;5050950;28;20041;-21
2022/02/15 02:43:43;;;;;;;43.92;23.85;;;;;;;1.23;65.99;100790.28;5050675;28;20586;-21
2022/02/15 02:46:09;;;;;;;42.85;24.33;;;;;;;1.35;65.31;100800.53;5051065;28;20495;-21
2022/02/15 02:48:34;;;;;;;42.58;24.50;;;;;;;1.32;65.52;100790.28;5050349;28;20033;-21
2022/02/15 02:51:00;;;;;;;43.58;24.90;;;;;;;0.54;67.63;100790.28;5050393;28;20033;-22
2022/02/15 02:53:25;;;;;;;39.70;23.27;;;;;;;-0.06;69.36;100774.53;5050530;28;20591;-21
2022/02/15 02:55:50;;;;;;;41.83;24.13;;;;;;;0.16;69.70;100784.00;5032640;28;20033;-21
2022/02/15 02:58:16;;;;;;;42.90;23.90;;;;;;;-0.50;70.51;100773.06;5050534;28;20041;-21
2022/02/15 03:00:44;;;;;;;43.97;22.50;;;;;;;-1.02;71.66;100793.97;5032225;28;20053;-21
2022/02/15 03:03:09;;;;;;;42.50;22.55;;;;;;;-1.04;70.97;100793.25;5050439;28;20028;-21
2022/02/15 03:05:35;;;;;;;43.60;23.00;;;;;;;-0.34;68.73;100783.09;5050109;28;20484;-21
2022/02/15 03:08:00;;;;;;;42.63;22.58;;;;;;;-1.39;71.41;100770.75;5032463;28;20040;-22
2022/02/15 03:10:27;;;;;;;34.65;20.52;;;;;;;-1.70;73.63;100796.75;5032081;28;20136;-21
2022/02/15 03:12:53;;;;;;;44.88;23.38;;;;;;;-1.98;75.91;100786.81;5050260;28;20029;-21
2022/02/15 03:15:18;;;;;;;47.00;22.52;;;;;;;-2.23;75.48;100788.72;5050394;28;20436;-21
2022/02/15 03:17:44;;;;;;;57.15;25.40;;;;;;;-2.30;76.54;100787.53;5050146;28;20052;-21
2022/02/15 03:20:10;;;;;;;49.47;23.65;;;;;;;-2.23;75.43;100789.56;5049901;28;20037;-21
2022/02/15 03:22:35;;;;;;;53.35;25.15;;;;;;;-2.15;74.08;100802.03;5050339;28;20037;-21
2022/02/15 03:25:01;;;;;;;140.27;33.60;;;;;;;-1.49;75.83;100801.25;5050082;28;20098;-22
2022/02/15 03:27:26;;;;;;;68.00;32.08;;;;;;;-0.85;73.87;100805.66;5050004;28;20112;-21
2022/02/15 03:29:52;;;;;;;128.88;46.50;;;;;;;-0.57;72.75;100800.75;5049863;28;20062;-21
2022/02/15 03:32:17;;;;;;;126.07;45.33;;;;;;;-1.08;74.85;100810.19;5049750;28;20114;-21
2022/02/15 03:34:43;;;;;;;100.10;38.08;;;;;;;-1.00;74.87;100820.84;5049363;28;20036;-21
2022/02/15 03:37:08;;;;;;;105.65;42.75;;;;;;;-0.34;72.50;100814.53;5049688;28;20029;-20
2022/02/15 03:39:35;;;;;;;118.78;45.95;;;;;;;-0.69;72.83;100789.53;5049732;28;20044;-21
2022/02/15 03:44:46;;;;;;;67.93;35.13;;;;;;;-0.09;72.32;100813.28;5049435;28;20068;-21
2022/02/15 03:47:12;;;;;;;72.35;35.33;;;;;;;0.18;70.68;100823.19;5049163;28;20033;-22
2022/02/15 03:49:37;;;;;;;98.13;45.65;;;;;;;-0.30;71.99;100797.59;5049689;28;20037;-21
2022/02/15 03:52:03;;;;;;;119.47;53.60;;;;;;;-0.11;71.57;100815.22;5049491;28;20037;-22
2022/02/15 03:54:29;;;;;;;80.00;38.85;;;;;;;-0.05;71.64;100815.50;5049200;28;20036;-21
2022/02/15 03:56:54;;;;;;;84.75;41.70;;;;;;;-0.06;70.54;100823.50;5049379;28;20028;-21
2022/02/15 03:59:20;;;;;;;79.70;42.83;;;;;;;0.01;70.25;100813.34;5049303;28;20084;-21
2022/02/15 04:01:45;;;;;;;79.50;39.08;;;;;;;0.47;68.63;100801.44;5049153;28;20052;-22
2022/02/15 04:04:11;;;;;;;64.70;35.88;;;;;;;0.64;67.88;100777.19;5049170;28;20055;-21
2022/02/15 04:06:36;;;;;;;62.30;34.03;;;;;;;0.69;67.09;100777.56;5048594;28;20041;-22
2022/02/15 04:09:02;;;;;;;137.23;55.28;;;;;;;-0.10;69.83;100775.75;5049036;28;20120;-21
2022/02/15 04:11:28;;;;;;;110.70;48.38;;;;;;;-0.13;70.77;100778.63;5049476;28;20036;-21
2022/02/15 04:13:53;;;;;;;87.68;41.15;;;;;;;-0.17;71.15;100782.47;5048956;28;20029;-21
2022/02/15 04:16:19;;;;;;;80.93;40.50;;;;;;;0.53;68.85;100790.41;5048617;28;20040;-21
2022/02/15 04:18:47;;;;;;;74.60;41.95;;;;;;;0.65;67.77;100789.31;5048859;28;20025;-21
2022/02/15 04:21:13;;;;;;;74.32;38.85;;;;;;;0.73;67.23;100778.97;5048915;28;20098;-22
2022/02/15 04:23:39;;;;;;;70.72;39.05;;;;;;;0.98;65.87;100792.50;5049113;28;20480;-22
2022/02/15 04:26:05;;;;;;;72.60;43.10;;;;;;;1.10;64.74;100816.84;5048750;28;20082;-21
2022/02/15 04:28:30;;;;;;;73.00;41.38;;;;;;;0.55;66.69;100818.19;5048410;28;20066;-21
2022/02/15 04:30:55;;;;;;;95.18;47.03;;;;;;;0.48;67.15;100811.81;5047488;28;20037;-21
2022/02/15 04:33:21;;;;;;;91.50;47.53;;;;;;;-0.51;70.01;100814.19;5048514;28;20029;-21
2022/02/15 04:35:46;;;;;;;76.35;41.92;;;;;;;-1.04;72.22;100803.75;5048806;28;20407;-21
2022/02/15 04:38:12;;;;;;;79.18;38.92;;;;;;;-0.81;71.59;100821.00;5048815;28;20090;-21
2022/02/15 04:40:38;;;;;;;85.95;41.80;;;;;;;-0.06;68.60;100803.38;5048459;28;20079;-21
2022/02/15 04:43:04;;;;;;;84.55;41.55;;;;;;;0.05;68.01;100793.75;5048472;28;20037;-21
2022/02/15 04:45:29;;;;;;;81.55;40.90;;;;;;;-0.06;66.96;100813.88;5030164;28;20452;-21
2022/02/15 04:47:55;;;;;;;76.05;41.22;;;;;;;-1.02;70.94;100814.91;5048468;28;20047;-21
2022/02/15 04:50:20;;;;;;;77.03;40.63;;;;;;;-1.37;72.62;100812.50;5048618;28;20047;-21
2022/02/15 04:52:46;;;;;;;74.25;40.72;;;;;;;-1.29;72.56;100800.50;5030082;28;20037;-21
2022/02/15 04:55:11;;;;;;;75.28;37.03;;;;;;;-1.49;71.77;100816.94;5030354;28;20033;-21
2022/02/15 04:57:37;;;;;;;76.05;36.63;;;;;;;-1.27;72.05;100830.00;5048226;28;20488;-22
2022/02/15 05:00:04;;;;;;;73.90;39.03;;;;;;;-0.76;70.05;100825.03;5047757;28;20140;-22
2022/02/15 05:02:29;;;;;;;67.32;37.70;;;;;;;-1.03;69.60;100835.00;5048164;28;20492;-21
2022/02/15 05:04:55;;;;;;;73.35;37.47;;;;;;;-1.18;70.89;100841.50;5048219;28;20035;-20
2022/02/15 05:07:21;;;;;;;68.20;35.17;;;;;;;-1.06;68.57;100829.22;5048151;28;20495;-21
2022/02/15 05:09:47;;;;;;;72.55;33.42;;;;;;;-2.15;71.23;100846.44;5048059;28;20040;-21
2022/02/15 05:12:12;;;;;;;68.30;33.83;;;;;;;-2.62;71.98;100829.97;5048222;28;20033;-22
2022/02/15 05:14:38;;;;;;;79.47;38.40;;;;;;;-2.06;70.69;100850.16;5029669;28;20037;-22
2022/02/15 05:17:04;;;;;;;86.15;47.83;;;;;;;-1.57;68.61;100846.34;5048050;28;20481;-21
2022/02/15 05:19:29;;;;;;;71.72;38.53;;;;;;;-1.37;69.70;100852.59;5029286;28;20040;-22
2022/02/15 05:21:55;;;;;;;62.40;34.90;;;;;;;-0.98;67.55;100849.50;5047955;28;20029;-21
2022/02/15 05:24:20;;;;;;;65.85;32.65;;;;;;;-1.89;69.18;100825.31;5047784;28;20033;-21
2022/02/15 05:26:45;;;;;;;77.38;37.65;;;;;;;-1.97;70.47;100852.06;5047670;28;20017;-21
2022/02/15 05:29:11;;;;;;;68.47;33.28;;;;;;;-2.36;72.49;100863.78;5047638;28;20489;-22
2022/02/15 05:31:36;;;;;;;64.70;33.78;;;;;;;-2.46;74.72;100861.00;5029744;28;20703;-22
2022/02/15 05:34:02;;;;;;;87.82;35.45;;;;;;;-1.46;72.77;100884.72;5047819;28;20048;-21
2022/02/15 05:36:28;;;;;;;103.57;43.55;;;;;;;-1.45;71.73;100882.00;5047653;28;20047;-21
2022/02/15 05:38:53;;;;;;;89.38;39.65;;;;;;;-1.55;72.79;100899.38;5047771;28;20110;-21
2022/02/15 05:41:18;;;;;;;71.35;34.88;;;;;;;-1.88;74.04;100892.31;5029903;28;20029;-20
2022/02/15 05:43:44;;;;;;;66.53;33.70;;;;;;;-1.68;73.58;100896.84;5029522;28;20041;-21
2022/02/15 05:46:09;;;;;;;80.43;38.45;;;;;;;-1.42;72.54;100886.97;5047405;28;20158;-21
2022/02/15 05:48:35;;;;;;;79.43;39.42;;;;;;;-1.28;72.68;100906.00;5047427;28;20032;-21
2022/02/15 05:51:00;;;;;;;76.70;38.72;;;;;;;-1.19;73.11;100907.03;5047608;28;20033;-21
2022/02/15 05:53:29;;;;;;;114.85;41.08;;;;;;;-1.12;73.99;100882.06;5047680;28;20045;-21
2022/02/15 05:55:58;;;;;;;;;;;;;;;-1.23;74.99;100898.59;5030333;28;20029;-21
2022/02/15 05:58:24;;;;;;;101.07;34.88;;;;;;;-0.98;74.92;100894.88;5029447;28;19920;-22
2022/02/15 06:00:49;;;;;;;107.93;37.67;;;;;;;-0.83;74.23;100887.56;5047509;28;20104;-21
2022/02/15 06:05:59;;;;;;;101.90;40.05;;;;;;;-2.00;79.25;100880.19;5047547;28;20048;-22
2022/02/15 06:08:25;;;;;;;120.45;42.35;;;;;;;-1.94;79.94;100885.81;5029125;28;20029;-21
2022/02/15 06:10:51;;;;;;;86.45;37.30;;;;;;;-1.87;80.35;100892.22;5047593;28;20118;-20
2022/02/15 06:13:17;;;;;;;216.13;49.58;;;;;;;-1.87;81.62;100879.16;5047788;28;20035;-21
2022/02/15 06:15:42;;;;;;;172.75;44.22;;;;;;;-1.33;79.47;100880.16;5047113;28;20455;-21
2022/02/15 06:18:08;;;;;;;128.00;43.83;;;;;;;-0.54;76.25;100900.88;5047602;28;20060;-20
2022/02/15 06:20:33;;;;;;;107.45;46.05;;;;;;;-0.21;74.37;100904.28;5047094;28;20032;-21
2022/02/15 06:22:59;;;;;;;154.57;57.30;;;;;;;-0.22;74.09;100903.47;5047305;28;20119;-20
2022/02/15 06:25:24;;;;;;;119.97;53.50;;;;;;;-0.37;75.33;100911.75;5047029;28;20044;-22
2022/02/15 06:27:50;;;;;;;152.10;54.47;;;;;;;0.05;74.12;100922.25;5047294;28;20029;-21
2022/02/15 06:30:15;;;;;;;121.05;53.25;;;;;;;-0.04;74.34;100887.13;5048376;28;20086;-21
2022/02/15 06:32:41;;;;;;;115.38;47.60;;;;;;;-0.28;75.75;100913.63;5050687;28;20036;-21
2022/02/15 06:35:07;;;;;;;128.10;51.50;;;;;;;0.11;75.55;100898.13;5033329;28;20047;-20
2022/02/15 06:37:34;;;;;;;120.93;57.25;;;;;;;-0.08;73.81;100836.75;5050698;28;20021;-21
2022/02/15 06:40:00;;;;;;;100.55;46.97;;;;;;;0.78;72.19;100886.22;5050516;28;20037;-21
2022/02/15 06:42:25;;;;;;;114.47;57.03;;;;;;;0.63;73.35;100883.13;5032392;28;20024;-21
2022/02/15 06:44:51;;;;;;;129.77;59.35;;;;;;;0.82;72.74;100881.50;5050901;28;20048;-20
2022/02/15 06:47:16;;;;;;;132.80;65.18;;;;;;;0.64;73.76;100881.34;5050486;28;20037;-22
2022/02/15 06:49:42;;;;;;;106.63;56.65;;;;;;;0.40;74.04;100849.22;5050713;28;20040;-21
2022/02/15 06:52:07;;;;;;;92.45;51.13;;;;;;;0.82;73.18;100882.38;5032752;28;20037;-21
2022/02/15 06:54:32;;;;;;;92.38;47.35;;;;;;;1.07;72.90;100877.56;5050248;28;20029;-21
2022/02/15 06:56:58;;;;;;;83.70;46.20;;;;;;;1.58;71.64;100895.66;5050563;28;20021;-21
2022/02/15 06:59:23;;;;;;;71.63;43.42;;;;;;;1.20;73.02;100881.56;5050174;28;20053;-22
2022/02/15 07:01:50;;;;;;;81.20;44.72;;;;;;;1.44;72.44;100890.00;5050765;28;20044;-22
2022/02/15 07:04:16;;;;;;;82.68;45.95;;;;;;;1.75;71.47;100893.28;5050186;28;20043;-21
2022/02/15 07:06:41;;;;;;;84.45;47.53;;;;;;;1.88;72.24;100893.84;5049947;28;20033;-21
2022/02/15 07:09:06;;;;;;;87.00;48.13;;;;;;;2.01;71.75;100894.34;5032073;28;20090;-21
2022/02/15 07:11:32;;;;;;;89.82;47.65;;;;;;;2.18;71.83;100898.00;5032207;28;20037;-21
2022/02/15 07:13:58;;;;;;;88.70;47.85;;;;;;;2.39;70.09;100868.88;5050354;28;20028;-21
2022/02/15 07:16:23;;;;;;;99.30;54.05;;;;;;;3.01;68.33;100890.13;5050054;28;20025;-21
2022/02/15 07:18:48;;;;;;;113.35;58.15;;;;;;;3.33;67.32;100890.56;5049982;28;20543;-22
2022/02/15 07:21:15;;;;;;;85.10;48.40;;;;;;;2.58;70.69;100889.00;5049994;28;20682;-22
2022/02/15 07:23:40;;;;;;;85.03;50.25;;;;;;;2.47;73.11;100875.19;5032126;28;20040;-21
2022/02/15 07:26:05;;;;;;;86.15;47.38;;;;;;;2.07;72.51;100868.44;5049624;28;20028;-21
2022/02/15 07:28:31;;;;;;;64.65;39.22;;;;;;;2.61;72.86;100899.22;5049826;28;20045;-22
2022/02/15 07:30:56;;;;;;;72.88;40.83;;;;;;;3.14;70.01;100884.47;5049915;28;20037;-21
2022/02/15 07:33:22;;;;;;;74.68;42.95;;;;;;;2.92;71.26;100884.91;5049964;28;20503;-21
2022/02/15 07:35:48;;;;;;;82.40;44.15;;;;;;;3.17;71.42;100894.72;5049739;28;20389;-21
2022/02/15 07:38:13;;;;;;;76.15;42.80;;;;;;;3.20;70.48;100875.97;5049695;28;20040;-21
2022/02/15 07:40:39;;;;;;;78.80;46.60;;;;;;;3.76;69.14;100894.22;5049377;28;20452;-21
2022/02/15 07:43:04;;;;;;;75.95;44.65;;;;;;;3.29;72.34;100887.44;5048653;28;20047;-21
2022/02/15 07:45:30;;;;;;;76.53;45.53;;;;;;;3.82;72.47;100898.88;5049658;28;20168;-21
2022/02/15 07:47:55;;;;;;;72.10;40.70;;;;;;;4.01;71.27;100909.25;5049562;28;20531;-21
2022/02/15 07:50:22;;;;;;;66.47;38.97;;;;;;;3.82;71.92;100904.16;5049441;28;20040;-22
2022/02/15 07:52:50;;;;;;;60.80;36.15;;;;;;;3.80;70.91;100903.47;5049007;28;20115;-23
2022/02/15 07:55:16;;;;;;;63.55;36.97;;;;;;;3.94;72.63;100899.47;5031725;28;20090;-21
2022/02/15 07:57:42;;;;;;;62.30;38.05;;;;;;;4.33;70.56;100891.94;5031503;28;20029;-21
2022/02/15 08:00:08;;;;;;;60.50;37.55;;;;;;;4.64;68.34;100883.50;5049043;28;20061;-22
2022/02/15 08:02:33;;;;;;;59.53;35.45;;;;;;;4.51;68.79;100888.38;5049188;28;20104;-21
2022/02/15 08:04:59;;;;;;;61.35;37.05;;;;;;;4.98;68.53;100879.94;5030902;28;20029;-21
2022/02/15 08:07:25;;;;;;;54.33;33.50;;;;;;;4.79;68.25;100879.22;5048829;28;20507;-22
2022/02/15 08:09:50;;;;;;;54.40;32.45;;;;;;;4.87;68.07;100888.19;5048938;28;20037;-21
2022/02/15 08:12:18;;;;;;;53.95;31.95;;;;;;;5.19;66.85;100893.53;5049222;28;20486;-21
2022/02/15 08:14:44;;;;;;;;;;;;;;;5.39;67.18;100898.50;5049401;28;20033;-21
2022/02/15 08:17:10;;;;;;;52.83;32.22;;;;;;;5.24;66.94;100883.28;5049018;28;19920;-21
2022/02/15 08:19:35;;;;;;;45.67;29.42;;;;;;;5.28;67.19;100869.75;5049147;28;20047;-21
2022/02/15 08:22:00;;;;;;;48.53;30.15;;;;;;;5.68;64.84;100866.28;5048531;28;20044;-22
2022/02/15 08:24:27;;;;;;;49.70;28.75;;;;;;;6.15;64.34;100885.88;5048606;28;20037;-21
2022/02/15 08:26:53;;;;;;;46.17;29.05;;;;;;;6.29;63.28;100884.34;5048868;28;20032;-21
2022/02/15 08:29:18;;;;;;;40.90;28.30;;;;;;;6.46;62.86;100890.41;5048678;28;20039;-22
2022/02/15 08:31:44;;;;;;;48.10;30.15;;;;;;;6.62;63.03;100885.06;5048508;28;20063;-21
2022/02/15 08:34:09;;;;;;;47.70;29.65;;;;;;;6.78;62.75;100873.53;5048798;28;20032;-20
2022/02/15 08:36:35;;;;;;;93.05;48.95;;;;;;;7.02;62.46;100870.75;5048010;28;20033;-22
2022/02/15 08:39:00;;;;;;;50.35;32.42;;;;;;;7.11;62.53;100868.88;5048366;28;20090;-21
2022/02/15 08:41:26;;;;;;;59.63;38.45;;;;;;;7.08;63.46;100874.53;5048702;28;20039;-22
2022/02/15 08:43:51;;;;;;;96.32;50.00;;;;;;;6.43;64.04;100884.47;5048468;28;20040;-21
2022/02/15 08:46:17;;;;;;;70.32;41.03;;;;;;;6.26;65.17;100859.03;5048288;28;20037;-21
2022/02/15 08:48:42;;;;;;;47.15;29.42;;;;;;;6.26;67.16;100888.19;5048063;28;20033;-22
2022/02/15 08:51:08;;;;;;;45.10;28.77;;;;;;;6.28;65.94;100861.53;5048333;28;20033;-21
2022/02/15 08:53:33;;;;;;;51.55;30.33;;;;;;;6.70;64.74;100877.09;5047916;28;20036;-21
2022/02/15 08:56:00;;;;;;;39.72;26.15;;;;;;;6.46;64.04;100875.38;5030667;28;20021;-22
2022/02/15 08:58:25;;;;;;;43.47;27.23;;;;;;;6.84;64.46;100879.00;5048337;28;20057;-21
2022/02/15 09:00:51;;;;;;;43.10;28.45;;;;;;;7.09;63.10;100880.66;5048329;28;20111;-22
2022/02/15 09:03:17;;;;;;;44.55;28.50;;;;;;;7.35;62.57;100875.00;5048203;28;20102;-21
2022/02/15 09:05:42;;;;;;;40.83;28.77;;;;;;;7.36;61.88;100871.38;5048028;28;20171;-21
2022/02/15 09:08:08;;;;;;;40.78;26.75;;;;;;;7.34;62.18;100863.56;5029872;28;20036;-21
2022/02/15 09:10:37;;;;;;;42.95;26.95;;;;;;;7.57;62.05;100863.53;5047839;28;20037;-21
2022/02/15 09:13:03;;;;;;;37.85;25.65;;;;;;;7.86;60.03;100859.28;5048094;28;20027;-21
2022/02/15 09:15:28;;;;;;;40.25;26.15;;;;;;;7.78;59.72;100862.03;5047912;28;20029;-22
2022/02/15 09:17:55;;;;;;;37.65;24.23;;;;;;;7.89;58.52;100850.97;5047834;28;20029;-21
2022/02/15 09:20:21;;;;;;;38.30;25.75;;;;;;;8.55;57.53;100860.88;5047723;28;20032;-21
2022/02/15 09:22:48;;;;;;;33.80;23.65;;;;;;;8.22;57.71;100856.75;5047396;28;20040;-21
2022/02/15 09:25:13;;;;;;;31.80;22.10;;;;;;;7.44;59.66;100832.31;5047995;28;20041;-21
2022/02/15 09:27:39;;;;;;;37.03;24.38;;;;;;;7.95;60.69;100842.28;5029839;28;20028;-20
2022/02/15 09:30:05;;;;;;;35.75;24.08;;;;;;;8.48;57.79;100850.16;5047899;28;20033;-22
2022/02/15 09:32:31;;;;;;;33.53;23.23;;;;;;;8.79;57.46;100847.25;5047401;28;20106;-21
2022/02/15 09:34:56;;;;;;;34.70;23.42;;;;;;;8.68;57.20;100861.00;5048119;28;20493;-21
2022/02/15 09:37:22;;;;;;;34.33;23.42;;;;;;;8.57;57.06;100843.72;5047530;28;20032;-20
2022/02/15 09:39:48;;;;;;;36.47;22.85;;;;;;;8.51;57.33;100807.25;5048013;28;20040;-20
2022/02/15 09:42:14;;;;;;;36.22;24.33;;;;;;;9.04;56.27;100834.41;5047739;28;20056;-21
2022/02/15 09:44:40;;;;;;;31.85;21.70;;;;;;;8.63;56.14;100812.91;5047435;28;20148;-21
2022/02/15 09:47:05;;;;;;;30.92;21.70;;;;;;;8.85;54.93;100827.88;5047741;28;20033;-21
2022/02/15 09:49:49;;;;;;;29.33;20.48;;;;;;;8.44;57.17;100823.13;5013077;28;20116;-21
2022/02/15 09:52:14;;;;;;;34.65;23.67;;;;;;;9.30;54.88;100826.88;5018695;28;20029;-20
2022/02/15 09:54:42;;;;;;;31.27;21.95;;;;;;;9.27;54.94;100819.25;5047445;28;20397;-21
2022/02/15 09:57:08;;;;;;;33.73;22.33;;;;;;;9.35;53.89;100808.47;5047665;28;20029;-20
2022/02/15 09:59:33;;;;;;;34.40;22.65;;;;;;;9.95;52.87;100824.84;5029516;28;20298;-21
2022/02/15 10:02:02;;;;;;;35.72;22.73;;;;;;;9.73;55.23;100808.16;5029684;28;20044;-20
2022/02/15 10:04:34;;;;;;;33.72;22.67;;;;;;;10.15;53.62;100803.66;5029480;28;20040;-20
2022/02/15 10:07:07;;;;;;;30.88;21.42;;;;;;;10.40;52.47;100793.31;5051511;28;20098;-20
2022/02/15 10:09:33;;;;;;;29.67;20.75;;;;;;;10.79;49.81;100792.63;5051651;28;20032;-20
2022/02/15 10:12:09;;;;;;;31.23;20.95;;;;;;;10.89;49.82;100799.41;5051531;28;20396;-21
2022/02/15 10:14:38;;;;;;;32.13;21.50;;;;;;;10.95;49.46;100798.59;5051068;28;20041;-20
2022/02/15 10:17:08;;;;;;;35.13;23.02;;;;;;;10.83;50.36;100785.06;5016942;28;20048;-20
2022/02/15 10:19:33;;;;;;;32.17;21.38;;;;;;;10.89;49.81;100789.56;5034024;28;20025;-20
2022/02/15 10:21:59;;;;;;;35.78;23.13;;;;;;;11.00;49.66;100785.47;5051506;28;20534;-21
2022/02/15 10:24:27;;;;;;;30.20;21.45;;;;;;;11.09;50.67;100780.75;5050986;28;20048;-21
2022/02/15 10:27:00;;;;;;;32.22;22.02;;;;;;;10.62;50.74;100772.66;5050843;28;20025;-21
2022/02/15 10:29:26;;;;;;;28.73;18.85;;;;;;;10.49;50.68;100759.31;5050759;28;20047;-21
2022/02/15 10:31:59;;;;;;;86.38;48.03;;;;;;;10.81;48.70;100753.22;5051198;28;20029;-20
2022/02/15 10:34:25;;;;;;;23.98;16.00;;;;;;;10.88;49.37;100723.06;5050894;28;20032;-22
2022/02/15 10:37:00;;;;;;;19.25;12.65;;;;;;;11.62;46.82;100751.34;5051090;28;20029;-20
2022/02/15 10:39:54;;;;;;;20.77;14.23;;;;;;;12.72;43.96;100745.94;5050893;28;20035;-20
2022/02/15 10:42:23;;;;;;;22.98;15.30;;;;;;;13.10;43.17;100747.72;5044754;28;20507;-20
2022/02/15 10:45:02;;;;;;;25.45;15.77;;;;;;;13.60;41.59;100760.28;5050493;28;20530;-22
2022/02/15 10:47:29;;;;;;;20.38;12.88;;;;;;;12.60;44.61;100743.13;5050883;28;20128;-20
2022/02/15 10:50:00;;;;;;;20.13;13.68;;;;;;;12.38;44.68;100736.47;5051278;28;20036;-21
2022/02/15 10:52:26;;;;;;;22.95;14.45;;;;;;;12.92;43.74;100727.06;5051655;28;20025;-21
2022/02/15 10:54:52;;;;;;;21.83;16.40;;;;;;;13.55;42.56;100722.63;5051477;28;20037;-20
2022/02/15 10:57:18;;;;;;;21.45;14.85;;;;;;;13.45;43.18;100739.22;5051570;28;20032;-20
2022/02/15 10:59:47;;;;;;;20.23;14.07;;;;;;;13.75;41.58;100727.75;5051104;28;20092;-21
2022/02/15 11:02:20;;;;;;;18.45;11.60;;;;;;;14.16;39.37;100718.19;5051571;28;20068;-20
2022/02/15 11:04:52;;;;;;;24.42;14.55;;;;;;;14.14;40.93;100729.16;5050834;28;20068;-20
2022/02/15 11:07:19;;;;;;;30.52;18.20;;;;;;;14.20;41.13;100719.34;5051494;28;20033;-20
2022/02/15 11:10:11;;;;;;;23.63;16.67;;;;;;;13.86;41.96;100718.97;5016893;28;20028;-20
2022/02/15 11:12:55;;;;;;;21.00;14.77;;;;;;;14.32;40.22;100706.81;5043946;28;20065;-22
2022/02/15 11:15:22;;;;;;;22.55;16.73;;;;;;;14.61;39.66;100704.38;5033483;28;20047;-21
2022/02/15 11:17:49;;;;;;;25.23;15.70;;;;;;;15.24;38.44;100703.75;5032003;28;20067;-21